Time;durP1;ratioP1;P1;durP2;ratioP2;P2;SDS_P1;SDS_P2;PMS_P1;PMS_P2;Temp;Humidity;BMP_temperature;BMP_pressure;BME280_temperature;BME280_humidity;BME280_pressure;Samples;Min_cycle;Max_cycle;Signal;HPM_P1;HPM_P2
2021/08/07 00:01:04;;;;;;;2.50;2.30;;;17.20;81.20;;;;;;4916262;29;21006;-51
2021/08/07 00:03:31;;;;;;;2.37;2.17;;;17.20;81.20;;;;;;4930395;29;20530;-50
2021/08/07 00:06:06;;;;;;;2.83;2.57;;;17.20;81.30;;;;;;4916100;29;20475;-50
2021/08/07 00:08:33;;;;;;;3.10;2.80;;;17.20;81.40;;;;;;4932592;29;20472;-50
2021/08/07 00:11:00;;;;;;;2.87;2.20;;;17.20;81.50;;;;;;4930049;29;20462;-50
2021/08/07 00:13:27;;;;;;;4.03;2.13;;;17.20;81.50;;;;;;4932054;29;20460;-50
2021/08/07 00:15:53;;;;;;;3.07;2.30;;;17.20;81.50;;;;;;4931670;29;20498;-50
2021/08/07 00:18:20;;;;;;;2.70;2.07;;;17.20;81.60;;;;;;4929644;29;20448;-50
2021/08/07 00:20:47;;;;;;;3.57;2.30;;;17.20;81.60;;;;;;4931426;29;20468;-50
2021/08/07 00:23:14;;;;;;;2.20;2.00;;;17.30;81.50;;;;;;4929482;29;20461;-51
2021/08/07 00:25:41;;;;;;;2.53;2.33;;;17.30;81.50;;;;;;4931966;29;20468;-50
2021/08/07 00:28:08;;;;;;;2.07;1.87;;;17.30;81.50;;;;;;4930200;29;20981;-50
2021/08/07 00:30:35;;;;;;;4.00;2.50;;;17.30;81.60;;;;;;4928428;29;20559;-50
2021/08/07 00:33:02;;;;;;;3.83;2.60;;;17.30;81.40;;;;;;4922072;29;20834;-50
2021/08/07 00:35:28;;;;;;;2.50;2.07;;;17.30;81.50;;;;;;4928103;29;20495;-50
2021/08/07 00:37:55;;;;;;;3.37;2.53;;;17.30;81.60;;;;;;4930815;29;20464;-50
2021/08/07 00:40:22;;;;;;;5.00;2.57;;;17.30;81.70;;;;;;4929366;29;20451;-50
2021/08/07 00:42:49;;;;;;;5.17;2.40;;;17.30;81.70;;;;;;4915202;29;20464;-50
2021/08/07 00:45:16;;;;;;;3.10;2.37;;;17.30;81.70;;;;;;4927421;29;20475;-50
2021/08/07 00:47:42;;;;;;;3.10;2.63;;;17.30;81.70;;;;;;4912777;29;20475;-50
2021/08/07 00:50:10;;;;;;;3.07;2.50;;;17.30;81.80;;;;;;4915280;29;21016;-50
2021/08/07 00:52:40;;;;;;;4.13;2.93;;;17.30;81.90;;;;;;4929563;29;20476;-50
2021/08/07 00:55:08;;;;;;;4.40;2.90;;;17.30;81.90;;;;;;4931004;29;20490;-50
2021/08/07 00:57:34;;;;;;;3.77;2.33;;;17.40;82.00;;;;;;4927451;29;20870;-50
2021/08/07 01:00:01;;;;;;;5.40;2.40;;;17.40;81.90;;;;;;4929500;29;20476;-50
2021/08/07 01:02:30;;;;;;;3.10;2.90;;;17.40;81.60;;;;;;4911947;29;20463;-50
2021/08/07 01:05:07;;;;;;;2.47;2.20;;;17.50;81.40;;;;;;4928349;29;20460;-50
2021/08/07 01:08:03;;;;;;;3.57;2.60;;;17.50;81.10;;;;;;4930805;29;20478;-50
2021/08/07 01:10:40;;;;;;;2.40;2.10;;;17.50;81.00;;;;;;4926985;29;20464;-50
2021/08/07 01:13:21;;;;;;;2.90;2.23;;;17.50;80.90;;;;;;4926907;29;20466;-51
2021/08/07 01:15:59;;;;;;;3.17;2.57;;;17.50;80.90;;;;;;4927786;29;20499;-50
2021/08/07 01:18:27;;;;;;;3.47;2.40;;;17.40;80.90;;;;;;4928431;29;20470;-50
2021/08/07 01:20:56;;;;;;;2.63;2.40;;;17.30;81.00;;;;;;4930815;29;20459;-50
2021/08/07 01:23:42;;;;;;;6.00;2.60;;;17.30;80.90;;;;;;4927832;29;20671;-50
2021/08/07 01:26:09;;;;;;;4.40;2.80;;;17.20;81.10;;;;;;4927669;29;20459;-50
2021/08/07 01:28:39;;;;;;;3.93;2.30;;;17.20;81.20;;;;;;4928634;29;20491;-50
2021/08/07 01:31:09;;;;;;;2.77;2.53;;;17.10;81.30;;;;;;4930003;29;20491;-50
2021/08/07 01:33:37;;;;;;;3.17;2.87;;;17.10;81.40;;;;;;4928176;29;20833;-50
2021/08/07 01:36:05;;;;;;;2.80;2.43;;;17.10;81.60;;;;;;4912323;29;20495;-50
2021/08/07 01:38:31;;;;;;;2.83;2.37;;;17.00;81.70;;;;;;4925901;29;20473;-50
2021/08/07 01:40:58;;;;;;;3.37;2.70;;;17.00;81.80;;;;;;4929509;29;20546;-50
2021/08/07 01:43:25;;;;;;;4.33;2.73;;;17.00;81.80;;;;;;4931267;29;20946;-50
2021/08/07 01:45:52;;;;;;;4.60;2.90;;;17.00;81.80;;;;;;4925915;29;20562;-50
2021/08/07 01:48:31;;;;;;;3.23;2.33;;;16.90;82.00;;;;;;4899612;29;20515;-50
2021/08/07 01:51:18;;;;;;;2.57;2.37;;;16.90;82.10;;;;;;4912351;29;20471;-50
2021/08/07 01:53:47;;;;;;;2.90;2.70;;;16.90;82.20;;;;;;4927453;29;21038;-50
2021/08/07 01:56:28;;;;;;;2.83;2.10;;;16.90;82.50;;;;;;4929498;29;20526;-50
2021/08/07 01:59:04;;;;;;;4.17;2.67;;;16.90;82.50;;;;;;4927401;29;20456;-50
2021/08/07 02:01:31;;;;;;;2.20;2.00;;;16.80;82.50;;;;;;4924920;29;20491;-50
2021/08/07 02:04:00;;;;;;;2.60;2.40;;;16.80;82.50;;;;;;4924882;29;20886;-50
2021/08/07 02:06:31;;;;;;;2.87;2.50;;;16.80;82.70;;;;;;4926230;29;20475;-50
2021/08/07 02:08:58;;;;;;;13.53;3.10;;;16.80;82.80;;;;;;4918260;29;20474;-50
2021/08/07 02:11:25;;;;;;;5.50;2.37;;;16.80;82.80;;;;;;4928944;29;20914;-50
2021/08/07 02:13:55;;;;;;;2.83;2.50;;;16.70;82.90;;;;;;4926126;29;20500;-50
2021/08/07 02:16:22;;;;;;;3.30;2.67;;;16.70;82.90;;;;;;4929670;29;21008;-50
2021/08/07 02:18:50;;;;;;;3.47;2.83;;;16.70;83.00;;;;;;4926458;29;20464;-50
2021/08/07 02:21:17;;;;;;;4.93;2.30;;;16.70;82.90;;;;;;4925927;29;20464;-50
2021/08/07 02:23:48;;;;;;;2.50;2.30;;;16.60;82.90;;;;;;4926497;29;20834;-50
2021/08/07 02:26:16;;;;;;;2.67;2.47;;;16.60;82.90;;;;;;4916466;29;20470;-50
2021/08/07 02:28:44;;;;;;;4.77;2.27;;;16.60;83.00;;;;;;4929778;29;20810;-50
2021/08/07 02:31:11;;;;;;;7.17;2.40;;;16.60;83.00;;;;;;4915831;29;20456;-50
2021/08/07 02:33:38;;;;;;;2.60;2.20;;;16.60;82.90;;;;;;4928650;29;20799;-50
2021/08/07 02:36:06;;;;;;;5.13;2.80;;;16.60;82.90;;;;;;4927392;29;20500;-50
2021/08/07 02:38:33;;;;;;;2.43;2.17;;;16.60;83.00;;;;;;4928809;29;20462;-50
2021/08/07 02:41:02;;;;;;;2.63;2.17;;;16.60;83.00;;;;;;4912982;29;20945;-50
2021/08/07 02:43:29;;;;;;;2.87;2.30;;;16.50;83.10;;;;;;4927422;29;20457;-50
2021/08/07 02:45:57;;;;;;;2.40;2.20;;;16.50;83.10;;;;;;4913219;29;20478;-50
2021/08/07 02:48:25;;;;;;;4.73;2.60;;;16.50;83.00;;;;;;4929099;29;20464;-50
2021/08/07 02:50:53;;;;;;;4.90;2.47;;;16.40;82.90;;;;;;4914693;29;21250;-50
2021/08/07 02:53:20;;;;;;;2.50;2.03;;;16.40;82.90;;;;;;4926295;29;20465;-50
2021/08/07 02:55:48;;;;;;;4.63;2.53;;;16.40;83.00;;;;;;4928476;29;20558;-50
2021/08/07 02:58:15;;;;;;;3.67;2.17;;;16.40;83.10;;;;;;4924715;29;20460;-50
2021/08/07 03:00:42;;;;;;;5.07;2.23;;;16.40;83.10;;;;;;4928587;29;20543;-50
2021/08/07 03:03:09;;;;;;;4.10;2.57;;;16.40;83.20;;;;;;4930088;29;20832;-50
2021/08/07 03:05:36;;;;;;;4.90;2.70;;;16.30;83.30;;;;;;4926392;29;20491;-50
2021/08/07 03:08:04;;;;;;;2.93;2.73;;;16.30;83.30;;;;;;4926848;29;20478;-50
2021/08/07 03:10:31;;;;;;;4.73;2.60;;;16.30;83.40;;;;;;4918009;29;20994;-50
2021/08/07 03:12:59;;;;;;;6.53;2.60;;;16.30;83.50;;;;;;4915296;29;20965;-50
2021/08/07 03:15:27;;;;;;;3.90;2.03;;;16.30;83.80;;;;;;4915194;29;20487;-50
2021/08/07 03:17:53;;;;;;;4.00;2.27;;;16.40;83.80;;;;;;4932570;29;20833;-50
2021/08/07 03:20:30;;;;;;;3.10;2.60;;;16.40;83.80;;;;;;4929065;29;20464;-50
2021/08/07 03:22:59;;;;;;;2.90;2.63;;;16.30;83.70;;;;;;4932198;29;20457;-50
2021/08/07 03:25:26;;;;;;;2.20;1.97;;;16.30;83.60;;;;;;4930073;29;20467;-50
2021/08/07 03:27:52;;;;;;;1.67;1.57;;;16.30;83.50;;;;;;4929134;29;20468;-50
2021/08/07 03:30:19;;;;;;;3.40;2.53;;;16.30;83.60;;;;;;4929467;29;20837;-50
2021/08/07 03:32:46;;;;;;;3.60;2.07;;;16.30;83.60;;;;;;4931551;29;20468;-49
2021/08/07 03:35:13;;;;;;;4.40;2.57;;;16.30;83.70;;;;;;4930894;29;20495;-50
2021/08/07 03:37:39;;;;;;;2.53;2.33;;;16.30;83.60;;;;;;4933696;29;20470;-50
2021/08/07 03:40:07;;;;;;;3.33;2.20;;;16.30;83.60;;;;;;4916601;29;20467;-50
2021/08/07 03:42:34;;;;;;;2.10;1.90;;;16.30;83.50;;;;;;4929160;29;20478;-50
2021/08/07 03:45:00;;;;;;;2.90;2.17;;;16.30;83.60;;;;;;4929291;29;20833;-50
2021/08/07 03:47:27;;;;;;;2.90;2.00;;;16.30;83.70;;;;;;4931511;29;20494;-50
2021/08/07 03:49:54;;;;;;;2.43;2.07;;;16.30;83.80;;;;;;4932005;29;20452;-50
2021/08/07 03:52:20;;;;;;;2.20;2.00;;;16.40;83.80;;;;;;4929514;29;20468;-49
2021/08/07 03:54:47;;;;;;;2.70;2.50;;;16.40;83.80;;;;;;4914368;29;20471;-49
2021/08/07 03:57:14;;;;;;;2.37;2.17;;;16.40;83.70;;;;;;4930406;29;20490;-50
2021/08/07 03:59:40;;;;;;;3.57;1.83;;;16.50;83.60;;;;;;4927757;29;20467;-50
2021/08/07 04:02:07;;;;;;;3.30;2.37;;;16.40;83.60;;;;;;4925085;29;20464;-50
2021/08/07 04:04:34;;;;;;;7.50;2.40;;;16.40;83.60;;;;;;4926744;29;20968;-50
2021/08/07 04:07:01;;;;;;;2.90;2.13;;;16.40;83.60;;;;;;4930848;29;20497;-50
2021/08/07 04:09:27;;;;;;;2.63;2.00;;;16.40;83.60;;;;;;4929086;29;20913;-50
2021/08/07 04:11:54;;;;;;;4.13;2.67;;;16.40;83.60;;;;;;4912710;29;20476;-50
2021/08/07 04:14:21;;;;;;;3.17;2.07;;;16.50;83.50;;;;;;4929145;29;20908;-50
2021/08/07 04:16:48;;;;;;;3.30;2.57;;;16.40;83.50;;;;;;4923902;29;21009;-50
2021/08/07 04:19:15;;;;;;;2.70;2.50;;;16.50;83.60;;;;;;4928824;29;20456;-50
2021/08/07 04:21:41;;;;;;;4.00;2.70;;;16.40;83.60;;;;;;4928004;29;20472;-50
2021/08/07 04:24:08;;;;;;;3.10;2.27;;;16.50;83.60;;;;;;4924616;29;20981;-49
2021/08/07 04:26:35;;;;;;;2.53;2.33;;;16.40;83.60;;;;;;4929357;29;20670;-50
2021/08/07 04:29:01;;;;;;;4.33;2.67;;;16.50;83.70;;;;;;4928822;29;20949;-50
2021/08/07 04:31:28;;;;;;;2.73;2.13;;;16.50;83.80;;;;;;4909518;29;20464;-50
2021/08/07 04:33:55;;;;;;;3.63;2.67;;;16.50;83.90;;;;;;4928881;29;20833;-50
2021/08/07 04:36:22;;;;;;;2.10;1.90;;;16.50;83.90;;;;;;4929204;29;20488;-50
2021/08/07 04:38:49;;;;;;;3.17;2.50;;;16.50;83.80;;;;;;4927472;29;20468;-50
2021/08/07 04:41:16;;;;;;;3.93;3.20;;;16.50;83.80;;;;;;4927536;29;20456;-50
2021/08/07 04:43:43;;;;;;;4.27;3.13;;;16.50;83.90;;;;;;4927898;29;20464;-49
2021/08/07 04:46:09;;;;;;;3.23;2.70;;;16.50;83.90;;;;;;4927399;29;20468;-50
2021/08/07 04:48:36;;;;;;;3.00;2.70;;;16.50;83.90;;;;;;4913781;29;20500;-50
2021/08/07 04:51:03;;;;;;;3.70;2.73;;;16.50;83.90;;;;;;4928483;29;20811;-50
2021/08/07 04:53:30;;;;;;;5.13;2.90;;;16.50;83.90;;;;;;4928036;29;20962;-50
2021/08/07 04:55:57;;;;;;;4.27;2.23;;;16.60;83.90;;;;;;4928559;29;20496;-50
2021/08/07 04:58:25;;;;;;;3.10;2.37;;;16.60;83.90;;;;;;4928711;29;20514;-50
2021/08/07 05:00:52;;;;;;;4.50;2.67;;;16.60;84.00;;;;;;4927490;29;20883;-50
2021/08/07 05:03:19;;;;;;;3.17;2.33;;;16.60;84.00;;;;;;4913475;29;20546;-50
2021/08/07 05:05:46;;;;;;;3.70;2.70;;;16.70;84.00;;;;;;4912838;29;20523;-50
2021/08/07 05:08:13;;;;;;;3.23;2.27;;;16.70;83.80;;;;;;4913037;29;20476;-50
2021/08/07 05:10:40;;;;;;;2.97;2.57;;;16.70;83.80;;;;;;4926002;29;20476;-50
2021/08/07 05:13:07;;;;;;;5.13;2.77;;;16.80;84.00;;;;;;4923501;29;20473;-50
2021/08/07 05:15:33;;;;;;;3.60;2.60;;;16.80;84.00;;;;;;4907432;29;20467;-50
2021/08/07 05:18:02;;;;;;;3.20;2.73;;;16.80;84.20;;;;;;4927581;29;20465;-50
2021/08/07 05:20:29;;;;;;;5.50;2.73;;;16.90;84.10;;;;;;4930219;29;20541;-50
2021/08/07 05:22:58;;;;;;;4.70;2.70;;;16.90;84.00;;;;;;4900678;29;20807;-50
2021/08/07 05:25:27;;;;;;;7.07;2.97;;;16.90;84.00;;;;;;4915546;29;20828;-50
2021/08/07 05:27:53;;;;;;;3.33;2.53;;;16.90;84.00;;;;;;4929312;29;20456;-50
2021/08/07 05:30:20;;;;;;;3.30;2.40;;;16.90;84.00;;;;;;4899336;29;20767;-50
2021/08/07 05:32:48;;;;;;;5.40;2.73;;;16.90;84.00;;;;;;4930749;29;20448;-50
2021/08/07 05:35:15;;;;;;;3.17;2.90;;;16.90;84.00;;;;;;4931046;29;20990;-50
2021/08/07 05:37:42;;;;;;;6.50;3.70;;;17.00;84.10;;;;;;4928982;29;20576;-50
2021/08/07 05:40:12;;;;;;;3.27;2.83;;;17.00;84.10;;;;;;4930099;29;20975;-50
2021/08/07 05:42:39;;;;;;;4.30;3.23;;;17.00;84.00;;;;;;4929871;29;20464;-50
2021/08/07 05:45:07;;;;;;;3.00;2.70;;;17.10;84.00;;;;;;4927859;29;20460;-50
2021/08/07 05:47:34;;;;;;;4.53;2.80;;;17.10;84.10;;;;;;4927695;29;20980;-50
2021/08/07 05:50:00;;;;;;;3.40;2.60;;;17.10;84.10;;;;;;4929157;29;20544;-50
2021/08/07 05:52:27;;;;;;;4.40;3.13;;;17.20;84.00;;;;;;4928884;29;20482;-50
2021/08/07 05:54:56;;;;;;;4.30;3.17;;;17.20;84.00;;;;;;4925874;29;20472;-50
2021/08/07 05:57:23;;;;;;;6.27;2.80;;;17.20;83.90;;;;;;4929478;29;20487;-50
2021/08/07 05:59:50;;;;;;;3.40;3.10;;;17.30;83.80;;;;;;4929079;29;20988;-50
2021/08/07 06:02:17;;;;;;;5.43;2.93;;;17.30;83.80;;;;;;4930314;29;20462;-50
2021/08/07 06:04:44;;;;;;;5.80;3.40;;;17.30;83.60;;;;;;4915243;29;20494;-50
2021/08/07 06:07:11;;;;;;;4.60;2.93;;;17.40;83.60;;;;;;4905059;29;20456;-50
2021/08/07 06:09:38;;;;;;;3.90;3.50;;;17.50;83.50;;;;;;4932816;29;20515;-50
2021/08/07 06:12:05;;;;;;;6.70;3.50;;;17.50;83.40;;;;;;4929098;29;20466;-50
2021/08/07 06:14:32;;;;;;;3.20;2.90;;;17.60;83.30;;;;;;4927049;29;20957;-50
2021/08/07 06:16:58;;;;;;;3.70;3.30;;;17.60;83.30;;;;;;4915274;29;20499;-50
2021/08/07 06:19:25;;;;;;;4.10;2.93;;;17.60;83.40;;;;;;4930397;29;20535;-50
2021/08/07 06:21:52;;;;;;;4.50;2.70;;;17.70;83.40;;;;;;4929423;29;20457;-50
2021/08/07 06:24:19;;;;;;;3.20;2.90;;;17.80;83.20;;;;;;4929080;29;20456;-50
2021/08/07 06:26:46;;;;;;;8.63;3.33;;;17.80;83.10;;;;;;4929495;29;20546;-50
2021/08/07 06:29:13;;;;;;;4.13;2.87;;;17.90;83.10;;;;;;4913645;29;20471;-50
2021/08/07 06:31:39;;;;;;;3.40;3.00;;;17.90;82.90;;;;;;4927796;29;20464;-50
2021/08/07 06:34:06;;;;;;;4.97;3.00;;;18.00;82.80;;;;;;4931244;29;20452;-50
2021/08/07 06:36:33;;;;;;;2.97;2.67;;;18.10;82.50;;;;;;4930237;29;20490;-50
2021/08/07 06:39:00;;;;;;;4.30;2.70;;;18.10;82.10;;;;;;4931359;29;21020;-50
2021/08/07 06:41:26;;;;;;;3.17;2.20;;;18.20;81.80;;;;;;4931355;29;20470;-50
2021/08/07 06:43:53;;;;;;;3.97;2.13;;;18.30;81.60;;;;;;4913080;29;20460;-49
2021/08/07 06:46:20;;;;;;;3.23;2.40;;;18.40;81.50;;;;;;4932006;29;20464;-49
2021/08/07 06:48:47;;;;;;;2.57;2.37;;;18.40;81.40;;;;;;4932289;29;20468;-49
2021/08/07 06:51:16;;;;;;;5.27;2.40;;;18.50;81.10;;;;;;4933506;29;20451;-49
2021/08/07 06:53:43;;;;;;;3.20;2.17;;;18.60;80.90;;;;;;4932928;29;20462;-49
2021/08/07 06:56:09;;;;;;;2.53;2.33;;;18.60;80.10;;;;;;4933321;29;20487;-49
2021/08/07 06:58:36;;;;;;;2.60;2.30;;;18.60;80.00;;;;;;4909627;29;21014;-49
2021/08/07 07:01:03;;;;;;;2.27;1.60;;;18.70;79.90;;;;;;4915992;29;20587;-50
2021/08/07 07:03:30;;;;;;;3.30;1.63;;;18.70;79.80;;;;;;4931219;29;21001;-50
2021/08/07 07:05:56;;;;;;;4.73;2.70;;;18.70;79.80;;;;;;4931365;29;20467;-50
2021/08/07 07:08:23;;;;;;;3.57;2.03;;;18.80;79.70;;;;;;4917496;29;21016;-50
2021/08/07 07:10:50;;;;;;;2.13;1.93;;;18.80;79.40;;;;;;4919554;29;20988;-50
2021/08/07 07:13:17;;;;;;;2.43;1.60;;;18.90;79.20;;;;;;4914188;29;20478;-50
2021/08/07 07:15:43;;;;;;;2.13;1.93;;;18.90;79.30;;;;;;4935092;29;20467;-50
2021/08/07 07:18:10;;;;;;;6.10;2.13;;;19.00;79.40;;;;;;4935751;29;20894;-50
2021/08/07 07:20:37;;;;;;;4.10;1.97;;;19.00;79.30;;;;;;4935834;29;20451;-50
2021/08/07 07:23:05;;;;;;;2.90;2.13;;;19.00;79.20;;;;;;4934137;29;20968;-51
2021/08/07 07:25:32;;;;;;;2.00;1.63;;;19.10;79.10;;;;;;4934056;29;20452;-50
2021/08/07 07:28:00;;;;;;;2.20;1.90;;;19.10;78.90;;;;;;4934561;29;20451;-50
2021/08/07 07:30:30;;;;;;;3.60;2.30;;;19.20;78.80;;;;;;4933100;29;20467;-50
2021/08/07 07:32:58;;;;;;;5.13;1.90;;;19.20;78.70;;;;;;4934790;29;20881;-50
2021/08/07 07:35:25;;;;;;;4.20;1.93;;;19.20;78.50;;;;;;4932555;29;20460;-50
2021/08/07 07:37:51;;;;;;;3.67;2.10;;;19.20;78.50;;;;;;4930620;29;20503;-50
2021/08/07 07:40:19;;;;;;;3.33;1.73;;;19.30;78.30;;;;;;4932242;29;20507;-51
2021/08/07 07:42:46;;;;;;;2.03;1.83;;;19.30;78.20;;;;;;4916474;29;20464;-50
2021/08/07 07:45:13;;;;;;;3.10;2.10;;;19.40;78.00;;;;;;4933004;29;20467;-50
2021/08/07 07:47:40;;;;;;;3.57;2.00;;;19.40;77.80;;;;;;4932760;29;20478;-50
2021/08/07 07:50:07;;;;;;;4.10;2.83;;;19.40;77.80;;;;;;4926369;29;20964;-50
2021/08/07 07:52:34;;;;;;;2.97;2.37;;;19.50;77.70;;;;;;4930549;29;20456;-50
2021/08/07 07:55:01;;;;;;;3.03;1.87;;;19.50;77.20;;;;;;4922598;29;20463;-51
2021/08/07 07:57:28;;;;;;;4.00;1.97;;;19.60;76.90;;;;;;4933639;29;20499;-50
2021/08/07 07:59:55;;;;;;;2.63;1.77;;;19.60;76.80;;;;;;4932464;29;20503;-50
2021/08/07 08:02:22;;;;;;;3.07;2.10;;;19.70;76.50;;;;;;4932696;29;20452;-50
2021/08/07 08:04:49;;;;;;;3.23;1.57;;;19.70;76.60;;;;;;4915085;29;20452;-51
2021/08/07 08:07:16;;;;;;;2.37;1.63;;;19.70;76.80;;;;;;4928667;29;20460;-51
2021/08/07 08:09:43;;;;;;;15.30;2.43;;;19.80;76.80;;;;;;4919531;29;20460;-50
2021/08/07 08:12:10;;;;;;;6.53;2.33;;;19.90;76.40;;;;;;4917563;29;20820;-50
2021/08/07 08:14:36;;;;;;;4.97;1.80;;;19.90;76.20;;;;;;4927978;29;20463;-51
2021/08/07 08:17:03;;;;;;;2.63;1.40;;;20.00;76.10;;;;;;4930324;29;20492;-52
2021/08/07 08:19:30;;;;;;;2.50;1.87;;;20.10;76.30;;;;;;4932644;29;20966;-51
2021/08/07 08:21:57;;;;;;;4.10;1.63;;;20.10;76.20;;;;;;4931210;29;20463;-50
2021/08/07 08:24:24;;;;;;;4.50;1.60;;;20.20;76.00;;;;;;4917373;29;20824;-50
2021/08/07 08:26:52;;;;;;;2.23;1.77;;;20.30;75.70;;;;;;4933678;29;20496;-51
2021/08/07 08:29:19;;;;;;;2.47;1.60;;;20.50;75.30;;;;;;4928927;29;20978;-50
2021/08/07 08:31:46;;;;;;;3.17;1.53;;;20.50;75.00;;;;;;4930027;29;20455;-51
2021/08/07 08:34:13;;;;;;;2.60;1.63;;;20.60;74.70;;;;;;4932414;29;20456;-50
2021/08/07 08:36:39;;;;;;;2.03;1.47;;;20.70;74.60;;;;;;4915276;29;21065;-51
2021/08/07 08:39:06;;;;;;;7.00;1.73;;;20.80;74.20;;;;;;4916313;29;20454;-50
2021/08/07 08:41:36;;;;;;;6.30;1.80;;;20.90;74.00;;;;;;4918573;29;20463;-51
2021/08/07 08:44:04;;;;;;;2.80;1.60;;;21.10;73.60;;;;;;4931627;29;20719;-51
2021/08/07 08:46:33;;;;;;;3.80;1.30;;;21.20;73.00;;;;;;4917767;29;20812;-50
2021/08/07 08:49:00;;;;;;;4.20;1.80;;;21.40;72.40;;;;;;4931498;29;21056;-50
2021/08/07 08:51:30;;;;;;;5.20;3.70;;;21.50;71.70;;;;;;4913012;29;20452;-50
2021/08/07 08:53:57;;;;;;;5.10;2.30;;;21.60;71.30;;;;;;4931567;29;20462;-51
2021/08/07 08:56:24;;;;;;;4.27;2.07;;;21.70;71.20;;;;;;4931956;29;20550;-51
2021/08/07 08:58:51;;;;;;;1.47;1.17;;;21.80;71.10;;;;;;4931195;29;20451;-51
2021/08/07 09:01:18;;;;;;;5.73;1.80;;;21.90;70.60;;;;;;4917793;29;21012;-51
2021/08/07 09:03:47;;;;;;;2.97;1.37;;;22.00;70.40;;;;;;4933841;29;20456;-51
2021/08/07 09:06:14;;;;;;;6.70;1.53;;;22.10;70.50;;;;;;4933729;29;20868;-51
2021/08/07 09:09:04;;;;;;;2.53;1.30;;;22.20;69.60;;;;;;4934345;29;20456;-51
2021/08/07 09:11:31;;;;;;;2.00;1.10;;;22.30;68.50;;;;;;4928530;29;20463;-50
2021/08/07 09:14:32;;;;;;;2.60;1.10;;;22.40;67.70;;;;;;4928966;29;20448;-51
2021/08/07 09:16:59;;;;;;;5.97;1.50;;;22.50;67.60;;;;;;4932169;29;20534;-50
2021/08/07 09:19:38;;;;;;;3.87;1.20;;;22.50;67.40;;;;;;4933092;29;20542;-50
2021/08/07 09:22:07;;;;;;;4.00;1.10;;;22.50;66.70;;;;;;4931269;29;20457;-50
2021/08/07 09:24:51;;;;;;;2.20;1.40;;;22.50;65.70;;;;;;4931496;29;20452;-50
2021/08/07 09:27:26;;;;;;;2.97;1.53;;;22.50;65.50;;;;;;4932706;29;20459;-50
2021/08/07 09:29:53;;;;;;;3.50;1.37;;;22.30;66.00;;;;;;4928148;29;20465;-50
2021/08/07 09:32:20;;;;;;;1.80;1.50;;;22.20;66.60;;;;;;4929633;29;20858;-50
2021/08/07 09:35:07;;;;;;;2.47;1.50;;;22.10;67.10;;;;;;4932026;29;20462;-50
2021/08/07 09:37:34;;;;;;;4.63;1.80;;;22.00;67.50;;;;;;4926390;29;20499;-50
2021/08/07 09:40:04;;;;;;;5.40;1.63;;;21.90;67.90;;;;;;4932929;29;20451;-50
2021/08/07 09:42:34;;;;;;;1.70;1.30;;;21.80;68.50;;;;;;4931342;29;20464;-50
2021/08/07 09:45:06;;;;;;;1.87;1.37;;;21.70;69.00;;;;;;4931445;29;20458;-51
2021/08/07 09:47:33;;;;;;;4.07;1.80;;;21.60;68.90;;;;;;4931149;29;20471;-50
2021/08/07 09:50:01;;;;;;;2.20;1.23;;;21.60;68.80;;;;;;4929022;29;20457;-50
2021/08/07 09:52:46;;;;;;;3.93;1.43;;;21.50;68.90;;;;;;4917663;29;20795;-50
2021/08/07 09:55:12;;;;;;;3.83;1.37;;;21.40;69.10;;;;;;4932684;29;20495;-50
2021/08/07 09:57:39;;;;;;;4.00;1.80;;;21.30;69.30;;;;;;4918437;29;20493;-50
2021/08/07 10:00:07;;;;;;;3.47;1.73;;;21.30;69.90;;;;;;4930798;29;20476;-50
2021/08/07 10:02:38;;;;;;;2.73;1.30;;;21.30;70.30;;;;;;4932407;29;20463;-50
2021/08/07 10:05:08;;;;;;;1.93;1.20;;;21.20;70.70;;;;;;4929062;29;20451;-50
2021/08/07 10:07:35;;;;;;;5.93;1.80;;;21.20;70.80;;;;;;4929838;29;20460;-50
2021/08/07 10:10:02;;;;;;;3.27;1.53;;;21.20;71.00;;;;;;4932481;29;20456;-50
2021/08/07 10:12:28;;;;;;;15.13;2.77;;;21.20;71.00;;;;;;4929131;29;20454;-50
2021/08/07 10:14:58;;;;;;;6.37;1.67;;;21.20;71.20;;;;;;4933977;29;20451;-50
2021/08/07 10:17:26;;;;;;;5.63;1.60;;;21.30;71.00;;;;;;4928365;29;20863;-50
2021/08/07 10:19:53;;;;;;;4.10;1.53;;;21.30;70.20;;;;;;4934441;29;20454;-50
2021/08/07 10:22:20;;;;;;;2.77;1.67;;;21.40;69.70;;;;;;4937114;29;20471;-50
2021/08/07 10:24:48;;;;;;;5.13;1.60;;;21.40;69.90;;;;;;4929701;29;20824;-50
2021/08/07 10:27:20;;;;;;;1.50;1.33;;;21.40;69.90;;;;;;4919620;29;20460;-50
2021/08/07 10:29:51;;;;;;;2.40;1.53;;;21.50;69.90;;;;;;4935853;29;20469;-50
2021/08/07 10:32:20;;;;;;;4.60;1.80;;;21.60;69.60;;;;;;4929609;29;20466;-50
2021/08/07 10:34:50;;;;;;;5.10;1.53;;;21.60;69.70;;;;;;4919392;29;20452;-50
2021/08/07 10:37:17;;;;;;;1.93;1.20;;;21.60;69.60;;;;;;4921035;29;20483;-50
2021/08/07 10:39:44;;;;;;;2.83;1.50;;;21.60;67.90;;;;;;4935493;29;20487;-50
2021/08/07 10:42:14;;;;;;;2.13;1.30;;;21.70;67.00;;;;;;4933827;29;20457;-50
2021/08/07 10:44:47;;;;;;;2.90;1.60;;;21.60;67.50;;;;;;4934862;29;20452;-50
2021/08/07 10:47:14;;;;;;;2.87;1.50;;;21.60;68.20;;;;;;4915483;29;20942;-50
2021/08/07 10:49:45;;;;;;;5.27;1.67;;;21.50;68.40;;;;;;4916863;29;20482;-50
2021/08/07 10:52:21;;;;;;;2.13;1.00;;;21.60;68.40;;;;;;4935081;29;20539;-49
2021/08/07 10:54:52;;;;;;;5.30;2.03;;;21.60;68.40;;;;;;4934308;29;20465;-50
2021/08/07 10:57:32;;;;;;;3.73;1.40;;;21.70;68.60;;;;;;4934557;29;20863;-50
2021/08/07 10:59:58;;;;;;;2.00;1.00;;;21.80;68.50;;;;;;4935454;29;20479;-50
2021/08/07 11:02:26;;;;;;;4.70;1.53;;;21.80;67.50;;;;;;4933337;29;20459;-50
2021/08/07 11:04:53;;;;;;;2.77;1.43;;;21.90;67.10;;;;;;4931883;29;20467;-50
2021/08/07 11:07:21;;;;;;;4.57;2.20;;;21.90;67.20;;;;;;4919161;29;20451;-50
2021/08/07 11:10:05;;;;;;;3.30;1.70;;;22.00;67.50;;;;;;4937057;29;20455;-50
2021/08/07 11:12:33;;;;;;;4.10;1.43;;;22.10;65.70;;;;;;4931025;29;20468;-49
2021/08/07 11:15:03;;;;;;;2.40;1.30;;;22.10;65.60;;;;;;4917392;29;20993;-49
2021/08/07 11:17:33;;;;;;;4.30;1.40;;;22.20;65.20;;;;;;4933838;29;20996;-49
2021/08/07 11:20:11;;;;;;;3.20;1.40;;;22.10;65.50;;;;;;4933205;29;20463;-49
2021/08/07 11:22:39;;;;;;;4.27;1.40;;;22.10;65.80;;;;;;4933268;29;20545;-49
2021/08/07 11:25:11;;;;;;;3.13;1.60;;;22.10;66.00;;;;;;4933881;29;20562;-49
2021/08/07 11:30:35;;;;;;;2.73;1.63;;;22.10;66.20;;;;;;4932183;29;20495;-49
2021/08/07 11:33:03;;;;;;;4.73;1.50;;;22.10;65.30;;;;;;4930176;29;20868;-49
2021/08/07 11:35:30;;;;;;;3.53;1.70;;;22.10;65.40;;;;;;4931818;29;20482;-49
2021/08/07 11:38:06;;;;;;;1.77;1.27;;;22.10;65.50;;;;;;4919698;29;20482;-49
2021/08/07 11:40:47;;;;;;;3.00;1.50;;;22.10;65.80;;;;;;4929087;29;20474;-50
2021/08/07 11:43:22;;;;;;;3.93;1.60;;;22.10;66.10;;;;;;4915174;29;21001;-49
2021/08/07 11:46:04;;;;;;;4.07;2.70;;;22.10;66.50;;;;;;4931817;29;20499;-49
2021/08/07 11:48:37;;;;;;;10.83;7.10;;;22.20;65.70;;;;;;4934803;29;20459;-49
2021/08/07 11:51:10;;;;;;;4.97;4.20;;;22.20;65.00;;;;;;4931427;29;20464;-49
2021/08/07 11:53:41;;;;;;;3.30;2.10;;;22.20;65.10;;;;;;4933447;29;20827;-49
2021/08/07 11:56:17;;;;;;;3.93;2.10;;;22.10;65.10;;;;;;4930600;29;20831;-49
2021/08/07 11:58:46;;;;;;;4.50;1.70;;;22.20;65.40;;;;;;4915943;29;20498;-49
2021/08/07 12:01:14;;;;;;;3.37;1.40;;;22.20;65.00;;;;;;4930624;29;20488;-49
2021/08/07 12:03:42;;;;;;;2.30;1.43;;;22.10;65.20;;;;;;4916222;29;20460;-49
2021/08/07 12:06:12;;;;;;;4.53;1.60;;;22.10;65.40;;;;;;4933139;29;20523;-49
2021/08/07 12:08:39;;;;;;;3.03;2.20;;;22.00;65.70;;;;;;4922578;29;20964;-49
2021/08/07 12:11:09;;;;;;;3.50;1.87;;;22.00;66.40;;;;;;4932192;29;20467;-49
2021/08/07 12:13:42;;;;;;;5.97;1.50;;;22.00;65.90;;;;;;4931456;29;20769;-49
2021/08/07 12:16:11;;;;;;;3.00;1.60;;;22.00;65.90;;;;;;4932450;29;21037;-49
2021/08/07 12:18:53;;;;;;;3.77;1.40;;;22.00;66.20;;;;;;4931408;29;20571;-49
2021/08/07 12:21:23;;;;;;;3.73;1.57;;;21.90;66.50;;;;;;4934475;29;20460;-49
2021/08/07 12:23:54;;;;;;;4.43;1.60;;;21.90;66.10;;;;;;4929381;29;20491;-49
2021/08/07 12:26:23;;;;;;;3.50;2.13;;;21.90;66.20;;;;;;4933236;29;20503;-49
2021/08/07 12:28:57;;;;;;;3.63;1.73;;;21.90;66.40;;;;;;4917027;29;20837;-49
2021/08/07 12:31:44;;;;;;;3.70;1.77;;;21.90;66.80;;;;;;4929900;29;20465;-49
2021/08/07 12:34:16;;;;;;;2.37;1.63;;;21.90;67.10;;;;;;4931666;29;20467;-49
2021/08/07 12:36:58;;;;;;;4.10;1.50;;;21.90;65.90;;;;;;4928673;29;20459;-49
2021/08/07 12:39:28;;;;;;;4.50;1.50;;;21.90;66.50;;;;;;4929982;29;20483;-49
2021/08/07 12:41:56;;;;;;;2.80;1.43;;;21.90;66.90;;;;;;4929844;29;20455;-49
2021/08/07 12:44:28;;;;;;;2.50;1.50;;;21.90;66.30;;;;;;4933122;29;20536;-49
2021/08/07 12:46:56;;;;;;;3.03;1.67;;;21.90;65.90;;;;;;4931436;29;20452;-49
2021/08/07 12:49:37;;;;;;;2.07;1.20;;;21.90;65.80;;;;;;4931415;29;20496;-49
2021/08/07 12:52:10;;;;;;;2.00;1.60;;;21.90;65.80;;;;;;4929262;29;20463;-49
2021/08/07 12:54:38;;;;;;;4.50;1.40;;;21.80;66.90;;;;;;4926860;29;20472;-49
2021/08/07 12:57:20;;;;;;;2.47;1.20;;;21.80;66.70;;;;;;4929387;29;20961;-49